createdAt,value
2022-11-01T00:02:05.988Z,15.30
2022-11-01T00:04:35.044Z,15.40
2022-11-01T00:07:04.486Z,15.40
2022-11-01T00:09:34.670Z,15.40
2022-11-01T00:12:03.365Z,15.40
2022-11-01T00:14:32.101Z,15.40
2022-11-01T00:17:00.879Z,15.40
2022-11-01T00:19:29.568Z,15.40
2022-11-01T00:21:58.314Z,15.40
2022-11-01T00:24:26.965Z,15.40
2022-11-01T00:26:57.088Z,15.50
2022-11-01T00:29:26.735Z,15.50
2022-11-01T00:31:55.623Z,15.60
2022-11-01T00:34:24.698Z,15.60
2022-11-01T00:36:53.396Z,15.60
2022-11-01T00:39:23.564Z,15.60
2022-11-01T00:41:53.821Z,15.60
2022-11-01T00:44:23.987Z,15.60
2022-11-01T00:46:52.914Z,15.70
2022-11-01T00:49:21.760Z,15.70
2022-11-01T00:51:52.149Z,15.70
2022-11-01T00:54:21.461Z,15.70
2022-11-01T00:56:50.261Z,15.70
2022-11-01T00:59:19.169Z,15.60
2022-11-01T01:01:49.844Z,15.60
2022-11-01T01:04:18.792Z,15.60
2022-11-01T01:06:47.559Z,15.60
2022-11-01T01:09:16.527Z,15.60
2022-11-01T01:11:45.513Z,15.60
2022-11-01T01:14:14.612Z,15.60
2022-11-01T01:16:43.481Z,15.60
2022-11-01T01:19:13.685Z,15.50
2022-11-01T01:21:42.877Z,15.60
2022-11-01T01:24:11.808Z,15.50
2022-11-01T01:26:40.741Z,15.50
2022-11-01T01:29:09.750Z,15.50
2022-11-01T01:31:39.110Z,15.50
2022-11-01T01:34:08.117Z,15.50
2022-11-01T01:36:38.552Z,15.40
2022-11-01T01:39:07.900Z,15.40
2022-11-01T01:41:54.853Z,15.40
2022-11-01T01:45:03.548Z,15.40
2022-11-01T01:47:35.033Z,15.40
2022-11-01T01:50:07.919Z,15.40
2022-11-01T01:52:41.474Z,15.30
2022-11-01T01:55:13.438Z,15.30
2022-11-01T01:57:43.786Z,15.30
2022-11-01T02:00:14.154Z,15.30
2022-11-01T02:02:44.984Z,15.30
2022-11-01T02:05:19.015Z,15.30
2022-11-01T02:07:50.279Z,15.30
2022-11-01T02:10:19.681Z,15.30
2022-11-01T02:12:50.070Z,15.40
2022-11-01T02:15:22.111Z,15.40
2022-11-01T02:18:03.136Z,15.40
2022-11-01T02:21:05.417Z,15.40
2022-11-01T02:23:58.521Z,15.40
2022-11-01T02:26:51.914Z,15.40
2022-11-01T02:29:38.323Z,15.40
2022-11-01T02:32:20.068Z,15.40
2022-11-01T02:34:56.893Z,15.40
2022-11-01T02:37:29.633Z,15.50
2022-11-01T02:40:03.356Z,15.50
2022-11-01T02:42:36.160Z,15.50
2022-11-01T02:45:09.458Z,15.50
2022-11-01T02:47:41.245Z,15.50
2022-11-01T02:50:12.378Z,15.50
2022-11-01T02:52:42.687Z,15.50
2022-11-01T02:55:29.843Z,15.50
2022-11-01T02:58:02.439Z,15.50
2022-11-01T03:00:33.689Z,15.50
2022-11-01T03:03:12.405Z,15.50
2022-11-01T03:05:48.692Z,15.60
2022-11-01T03:08:19.987Z,15.60
2022-11-01T03:10:57.164Z,15.60
2022-11-01T03:13:46.944Z,15.60
2022-11-01T03:16:22.905Z,15.60
2022-11-01T03:19:05.730Z,15.60
2022-11-01T03:21:39.285Z,15.60
2022-11-01T03:24:17.778Z,15.60
2022-11-01T03:26:55.381Z,15.60
2022-11-01T03:29:26.407Z,15.60
2022-11-01T03:31:56.573Z,15.60
2022-11-01T03:34:27.004Z,15.50
2022-11-01T03:37:02.607Z,15.50
2022-11-01T03:39:35.249Z,15.50
2022-11-01T03:42:08.558Z,15.50
2022-11-01T03:44:42.006Z,15.50
2022-11-01T03:47:13.434Z,15.50
2022-11-01T03:49:43.808Z,15.40
2022-11-01T03:52:12.776Z,15.40
2022-11-01T03:54:41.557Z,15.40
2022-11-01T03:57:10.358Z,15.40
2022-11-01T03:59:39.113Z,15.40
2022-11-01T04:02:07.836Z,15.50
2022-11-01T04:04:36.693Z,15.50
2022-11-01T04:07:06.760Z,15.50
2022-11-01T04:09:35.537Z,15.50
2022-11-01T04:12:04.468Z,15.50
2022-11-01T04:14:49.949Z,15.50
2022-11-01T04:17:36.614Z,15.50
2022-11-01T04:20:23.905Z,15.50
2022-11-01T04:22:54.125Z,15.50
2022-11-01T04:25:23.119Z,15.50
2022-11-01T04:27:51.948Z,15.50
2022-11-01T04:30:20.953Z,15.50
2022-11-01T04:32:49.796Z,15.50
2022-11-01T04:35:18.996Z,15.50
2022-11-01T04:37:48.723Z,15.50
2022-11-01T04:40:20.449Z,15.50
2022-11-01T04:42:49.618Z,15.50
2022-11-01T04:45:18.872Z,15.50
2022-11-01T04:47:52.408Z,15.50
2022-11-01T04:50:22.002Z,15.50
2022-11-01T04:52:51.355Z,15.50
2022-11-01T04:55:22.017Z,15.50
2022-11-01T04:57:50.956Z,15.50
2022-11-01T05:00:20.446Z,15.50
2022-11-01T05:02:50.454Z,15.50
2022-11-01T05:05:20.606Z,15.50
2022-11-01T05:07:49.754Z,15.50
2022-11-01T05:10:22.590Z,15.40
2022-11-01T05:12:51.575Z,15.40
2022-11-01T05:15:20.851Z,15.40
2022-11-01T05:17:49.985Z,15.40
2022-11-01T05:20:19.066Z,15.40
2022-11-01T05:22:49.457Z,15.40
2022-11-01T05:25:18.792Z,15.40
2022-11-01T05:27:50.448Z,15.40
2022-11-01T05:30:19.623Z,15.40
2022-11-01T05:32:48.887Z,15.40
2022-11-01T05:35:18.033Z,15.40
2022-11-01T05:37:46.965Z,15.40
2022-11-01T05:40:15.989Z,15.40
2022-11-01T05:42:45.062Z,15.40
2022-11-01T05:45:15.765Z,15.40
2022-11-01T05:47:44.905Z,15.40
2022-11-01T05:50:15.685Z,15.40
2022-11-01T05:52:44.944Z,15.40
2022-11-01T05:55:14.077Z,15.40
2022-11-01T05:57:43.095Z,15.40
2022-11-01T06:00:15.067Z,15.40
2022-11-01T06:02:44.293Z,15.40
2022-11-01T06:05:13.442Z,15.40
2022-11-01T06:07:42.433Z,15.40
2022-11-01T06:10:11.593Z,15.40
2022-11-01T06:12:40.653Z,15.40
2022-11-01T06:15:10.529Z,15.40
2022-11-01T06:17:41.197Z,15.40
2022-11-01T06:20:11.393Z,15.30
2022-11-01T06:22:40.982Z,15.40
2022-11-01T06:25:10.824Z,15.40
2022-11-01T06:27:39.909Z,15.40
2022-11-01T06:30:10.673Z,15.40
2022-11-01T06:32:41.181Z,15.40
2022-11-01T06:35:11.807Z,15.40
2022-11-01T06:37:41.109Z,15.40
2022-11-01T06:40:12.954Z,15.40
2022-11-01T06:42:46.583Z,15.40
2022-11-01T06:45:16.539Z,15.50
2022-11-01T06:47:50.050Z,15.50
2022-11-01T06:50:19.226Z,15.50
2022-11-01T06:52:49.039Z,15.50
2022-11-01T06:55:18.407Z,15.50
2022-11-01T06:57:54.702Z,15.60
2022-11-01T07:00:24.316Z,15.60
2022-11-01T07:03:00.933Z,15.70
2022-11-01T07:05:34.502Z,15.70
2022-11-01T07:08:08.124Z,15.70
2022-11-01T07:10:37.923Z,15.80
2022-11-01T07:13:08.289Z,15.80
2022-11-01T07:15:37.453Z,15.80
2022-11-01T07:18:09.309Z,15.90
2022-11-01T07:20:42.388Z,16.00
2022-11-01T07:23:13.681Z,16.00
2022-11-01T07:25:43.569Z,16.00
2022-11-01T07:28:12.787Z,16.00
2022-11-01T07:30:42.322Z,16.00
2022-11-01T07:33:12.782Z,16.00
2022-11-01T07:35:42.311Z,16.00
2022-11-01T07:38:13.244Z,16.10
2022-11-01T07:40:44.587Z,16.10
2022-11-01T07:43:13.600Z,16.10
2022-11-01T07:45:42.849Z,16.10
2022-11-01T07:48:15.186Z,16.20
2022-11-01T07:50:45.549Z,16.20
2022-11-01T07:53:16.491Z,16.20
2022-11-01T07:55:46.485Z,16.20
2022-11-01T07:58:16.718Z,16.30
2022-11-01T08:00:45.802Z,16.30
2022-11-01T08:03:17.538Z,16.30
2022-11-01T08:05:48.240Z,16.30
2022-11-01T08:08:17.700Z,16.30
2022-11-01T08:10:47.155Z,16.40
2022-11-01T08:13:17.756Z,16.40
2022-11-01T08:15:47.934Z,16.40
2022-11-01T08:18:19.115Z,16.40
2022-11-01T08:20:48.154Z,16.50
2022-11-01T08:23:17.795Z,16.50
2022-11-01T08:25:47.277Z,16.50
2022-11-01T08:28:19.070Z,16.50
2022-11-01T08:30:50.598Z,16.60
2022-11-01T08:33:20.856Z,16.60
2022-11-01T08:35:51.023Z,16.70
2022-11-01T08:38:20.301Z,16.70
2022-11-01T08:40:49.430Z,16.80
2022-11-01T08:43:18.633Z,16.80
2022-11-01T08:45:48.393Z,16.90
2022-11-01T08:48:17.430Z,16.90
2022-11-01T08:50:47.847Z,17.00
2022-11-01T08:53:16.901Z,17.10
2022-11-01T08:55:46.016Z,17.10
2022-11-01T08:58:14.877Z,17.20
2022-11-01T09:00:45.092Z,17.20
2022-11-01T09:03:14.312Z,17.30
2022-11-01T09:05:43.237Z,17.40
2022-11-01T09:08:13.667Z,17.40
2022-11-01T09:10:42.641Z,17.50
2022-11-01T09:13:11.742Z,17.50
2022-11-01T09:15:40.914Z,17.60
2022-11-01T09:18:09.921Z,17.70
2022-11-01T09:20:39.102Z,17.70
2022-11-01T09:23:08.322Z,17.80
2022-11-01T09:25:38.493Z,17.90
2022-11-01T09:28:08.333Z,18.00
2022-11-01T09:30:45.098Z,18.00
2022-11-01T09:33:24.273Z,18.10
2022-11-01T09:35:59.322Z,18.10
2022-11-01T09:38:28.608Z,18.20
2022-11-01T09:41:04.137Z,18.20
2022-11-01T09:43:37.931Z,18.30
2022-11-01T09:46:08.816Z,18.40
2022-11-01T09:48:38.617Z,18.40
2022-11-01T09:51:14.307Z,18.50
2022-11-01T09:53:44.119Z,18.50
2022-11-01T09:56:22.617Z,18.50
2022-11-01T09:59:02.320Z,18.50
2022-11-01T10:01:43.134Z,18.60
2022-11-01T10:04:38.914Z,18.70
2022-11-01T10:07:13.725Z,18.70
2022-11-01T10:09:52.550Z,18.80
2022-11-01T10:12:38.154Z,18.90
2022-11-01T10:15:31.707Z,19.00
2022-11-01T10:18:08.388Z,19.10
2022-11-01T10:20:41.812Z,19.20
2022-11-01T10:23:16.988Z,19.20
2022-11-01T10:25:52.907Z,19.20
2022-11-01T10:28:29.442Z,19.20
2022-11-01T10:31:03.144Z,19.30
2022-11-01T10:33:36.039Z,19.30
2022-11-01T10:36:10.875Z,19.40
2022-11-01T10:39:16.600Z,19.40
2022-11-01T10:41:39.101Z,19.40
2022-11-01T10:44:14.797Z,19.40
2022-11-01T10:46:46.569Z,19.50
2022-11-01T10:49:24.470Z,19.50
2022-11-01T10:51:57.702Z,19.50
2022-11-01T10:54:31.055Z,19.50
2022-11-01T10:57:04.683Z,19.50
2022-11-01T10:59:40.274Z,19.50
2022-11-01T11:02:19.171Z,19.50
2022-11-01T11:04:49.965Z,19.60
2022-11-01T11:07:21.645Z,19.60
2022-11-01T11:09:52.175Z,19.60
2022-11-01T11:12:22.882Z,19.60
2022-11-01T11:14:56.990Z,19.70
2022-11-01T11:17:32.554Z,19.80
2022-11-01T11:20:04.464Z,20.00
2022-11-01T11:22:39.776Z,20.20
2022-11-01T11:25:16.424Z,20.50
2022-11-01T11:27:48.388Z,20.70
2022-11-01T11:30:30.820Z,21.10
2022-11-01T11:33:02.913Z,21.40
2022-11-01T11:35:37.046Z,21.60
2022-11-01T11:38:07.965Z,21.80
2022-11-01T11:40:45.659Z,22.00
2022-11-01T11:43:24.028Z,22.20
2022-11-01T11:46:06.534Z,22.30
2022-11-01T11:48:47.077Z,22.30
2022-11-01T11:51:16.503Z,22.20
2022-11-01T11:53:46.021Z,22.10
2022-11-01T11:56:15.691Z,22.10
2022-11-01T11:58:48.466Z,22.00
2022-11-01T12:01:24.180Z,22.00
2022-11-01T12:03:58.674Z,21.90
2022-11-01T12:06:30.231Z,21.90
2022-11-01T12:09:00.944Z,21.80
2022-11-01T12:11:40.577Z,21.70
2022-11-01T12:14:20.817Z,21.70
2022-11-01T12:16:52.538Z,21.60
2022-11-01T12:19:26.160Z,21.50
2022-11-01T12:21:55.344Z,21.40
2022-11-01T12:24:27.602Z,21.30
2022-11-01T12:27:01.704Z,21.30
2022-11-01T12:29:34.324Z,21.20
2022-11-01T12:32:15.685Z,21.20
2022-11-01T12:34:48.518Z,21.10
2022-11-01T12:37:20.689Z,21.00
2022-11-01T12:39:55.756Z,21.00
2022-11-01T12:42:28.901Z,20.90
2022-11-01T12:45:05.739Z,20.90
2022-11-01T12:47:41.594Z,20.90
2022-11-01T12:50:20.310Z,20.90
2022-11-01T12:52:52.514Z,20.90
2022-11-01T12:55:31.085Z,20.90
2022-11-01T12:58:00.497Z,20.90
2022-11-01T13:00:41.438Z,21.00
2022-11-01T13:03:24.603Z,21.00
2022-11-01T13:05:58.983Z,21.00
2022-11-01T13:08:35.641Z,21.00
2022-11-01T13:11:15.943Z,21.00
2022-11-01T13:13:51.001Z,21.00
2022-11-01T13:16:25.000Z,20.90
2022-11-01T13:19:01.514Z,20.90
2022-11-01T13:21:37.149Z,20.90
2022-11-01T13:24:14.073Z,20.90
2022-11-01T13:26:47.917Z,20.80
2022-11-01T13:29:20.962Z,20.80
2022-11-01T13:32:00.897Z,20.80
2022-11-01T13:34:38.269Z,20.80
2022-11-01T13:37:13.447Z,20.80
2022-11-01T13:39:58.934Z,20.80
2022-11-01T13:42:34.789Z,20.90
2022-11-01T13:45:24.884Z,20.90
2022-11-01T13:48:01.498Z,20.80
2022-11-01T13:51:04.789Z,20.80
2022-11-01T13:53:39.411Z,20.80
2022-11-01T13:56:13.737Z,20.80
2022-11-01T13:58:43.012Z,20.80
2022-11-01T14:01:30.834Z,20.80
2022-11-01T14:04:48.120Z,20.70
2022-11-01T14:07:18.825Z,20.70
2022-11-01T14:09:49.452Z,20.70
2022-11-01T14:12:36.949Z,20.70
2022-11-01T14:15:22.736Z,20.60
2022-11-01T14:18:08.461Z,20.60
2022-11-01T14:20:47.228Z,20.50
2022-11-01T14:23:52.683Z,20.50
2022-11-01T14:26:37.738Z,20.50
2022-11-01T14:29:12.170Z,20.40
2022-11-01T14:31:44.248Z,20.40
2022-11-01T14:34:32.721Z,20.40
2022-11-01T14:37:10.787Z,20.40
2022-11-01T14:39:42.166Z,20.30
2022-11-01T14:42:16.876Z,20.30
2022-11-01T14:44:50.879Z,20.30
2022-11-01T14:47:28.629Z,20.20
2022-11-01T14:50:02.180Z,20.20
2022-11-01T14:52:36.374Z,20.20
2022-11-01T14:55:13.808Z,20.10
2022-11-01T14:57:45.249Z,20.10
2022-11-01T15:00:28.575Z,20.10
2022-11-01T15:05:33.817Z,20.00
2022-11-01T15:08:03.166Z,20.00
2022-11-01T15:10:42.445Z,20.00
2022-11-01T15:13:16.072Z,20.00
2022-11-01T15:15:53.836Z,19.90
2022-11-01T15:18:22.763Z,19.90
2022-11-01T15:20:55.691Z,19.90
2022-11-01T15:23:31.544Z,19.80
2022-11-01T15:26:05.689Z,19.80
2022-11-01T15:28:38.720Z,19.70
2022-11-01T15:31:09.768Z,19.70
2022-11-01T15:33:39.413Z,19.70
2022-11-01T15:36:19.687Z,19.70
2022-11-01T15:38:53.680Z,19.70
2022-11-01T15:41:27.631Z,19.60
2022-11-01T15:44:00.298Z,19.60
2022-11-01T15:46:32.855Z,19.60
2022-11-01T15:49:06.905Z,19.50
2022-11-01T15:51:48.241Z,19.50
2022-11-01T15:54:29.380Z,19.50
2022-11-01T15:57:02.785Z,19.40
2022-11-01T15:59:38.842Z,19.40
2022-11-01T16:02:18.359Z,19.30
2022-11-01T16:04:48.606Z,19.30
2022-11-01T16:07:20.484Z,19.20
2022-11-01T16:09:52.450Z,19.20
2022-11-01T16:12:23.493Z,19.10
2022-11-01T16:14:57.217Z,19.10
2022-11-01T16:17:32.819Z,19.10
2022-11-01T16:20:04.802Z,19.00
2022-11-01T16:22:46.419Z,19.00
2022-11-01T16:25:22.254Z,18.90
2022-11-01T16:27:55.921Z,18.90
2022-11-01T16:30:38.776Z,18.80
2022-11-01T16:33:10.435Z,18.80
2022-11-01T16:35:40.585Z,18.70
2022-11-01T16:38:26.956Z,18.70
2022-11-01T16:40:58.363Z,18.60
2022-11-01T16:43:30.933Z,18.50
2022-11-01T16:46:02.474Z,18.50
2022-11-01T16:48:32.944Z,18.40
2022-11-01T16:51:03.018Z,18.40
2022-11-01T16:53:32.278Z,18.30
2022-11-01T16:56:30.950Z,18.30
2022-11-01T16:59:00.359Z,18.20
2022-11-01T17:01:35.401Z,18.20
2022-11-01T17:04:05.875Z,18.10
2022-11-01T17:06:39.096Z,18.10
2022-11-01T17:09:13.257Z,18.00
2022-11-01T17:11:46.365Z,18.00
2022-11-01T17:14:19.098Z,17.90
2022-11-01T17:16:50.798Z,17.90
2022-11-01T17:19:24.977Z,17.90
2022-11-01T17:21:54.830Z,17.80
2022-11-01T17:24:27.144Z,17.70
2022-11-01T17:27:00.546Z,17.70
2022-11-01T17:29:30.305Z,17.60
2022-11-01T17:32:01.071Z,17.60
2022-11-01T17:34:30.161Z,17.60
2022-11-01T17:36:59.366Z,17.50
2022-11-01T17:39:29.737Z,17.50
2022-11-01T17:41:59.334Z,17.50
2022-11-01T17:44:28.294Z,17.40
2022-11-01T17:46:57.420Z,17.40
2022-11-01T17:49:28.475Z,17.30
2022-11-01T17:51:57.479Z,17.30
2022-11-01T17:57:21.758Z,17.20
2022-11-01T17:59:50.792Z,17.10
2022-11-01T18:02:20.092Z,17.10
2022-11-01T18:04:50.679Z,17.10
2022-11-01T18:07:21.226Z,17.00
2022-11-01T18:09:50.164Z,17.00
2022-11-01T18:12:25.161Z,17.00
2022-11-01T18:14:59.599Z,17.00
2022-11-01T18:17:40.113Z,16.90
2022-11-01T18:20:22.587Z,16.90
2022-11-01T18:22:56.977Z,16.80
2022-11-01T18:25:32.672Z,16.80
2022-11-01T18:28:04.032Z,16.80
2022-11-01T18:30:33.149Z,16.70
2022-11-01T18:33:06.546Z,16.70
2022-11-01T18:35:41.544Z,16.70
2022-11-01T18:38:17.940Z,16.60
2022-11-01T18:40:57.177Z,16.60
2022-11-01T18:43:28.479Z,16.50
2022-11-01T18:46:23.365Z,16.50
2022-11-01T18:48:47.780Z,16.50
2022-11-01T18:51:26.419Z,16.50
2022-11-01T18:54:04.385Z,16.40
2022-11-01T18:56:33.601Z,16.40
2022-11-01T18:59:03.857Z,16.40
2022-11-01T19:01:33.521Z,16.40
2022-11-01T19:04:10.443Z,16.30
2022-11-01T19:06:40.683Z,16.30
2022-11-01T19:09:17.664Z,16.30
2022-11-01T19:11:46.792Z,16.30
2022-11-01T19:14:23.000Z,16.20
2022-11-01T19:16:52.842Z,16.20
2022-11-01T19:19:22.537Z,16.20
2022-11-01T19:21:56.284Z,16.10
2022-11-01T19:24:33.160Z,16.10
2022-11-01T19:27:03.076Z,16.10
2022-11-01T19:29:35.256Z,16.10
2022-11-01T19:32:07.265Z,16.00
2022-11-01T19:34:38.455Z,16.00
2022-11-01T19:37:31.685Z,15.90
2022-11-01T19:40:04.226Z,15.90
2022-11-01T19:42:35.303Z,15.80
2022-11-01T19:45:29.010Z,15.80
2022-11-01T19:47:59.286Z,15.80
2022-11-01T19:50:35.380Z,15.70
2022-11-01T19:53:19.282Z,15.70
2022-11-01T19:56:00.464Z,15.70
2022-11-01T19:58:39.351Z,15.60
2022-11-01T20:01:43.138Z,15.60
2022-11-01T20:04:17.427Z,15.60
2022-11-01T20:06:49.804Z,15.50
2022-11-01T20:09:24.033Z,15.50
2022-11-01T20:11:53.453Z,15.50
2022-11-01T20:14:22.779Z,15.50
2022-11-01T20:16:51.895Z,15.50
2022-11-01T20:19:21.857Z,15.50
2022-11-01T20:21:50.588Z,15.50
2022-11-01T20:24:20.944Z,15.40
2022-11-01T20:26:50.605Z,15.40
2022-11-01T20:29:19.293Z,15.40
2022-11-01T20:31:48.485Z,15.40
2022-11-01T20:34:17.147Z,15.40
2022-11-01T20:37:02.195Z,15.30
2022-11-01T20:39:36.481Z,15.30
2022-11-01T20:42:05.367Z,15.30
2022-11-01T20:44:34.069Z,15.30
2022-11-01T20:47:03.175Z,15.30
2022-11-01T20:49:31.937Z,15.20
2022-11-01T20:52:26.280Z,15.20
2022-11-01T20:54:50.989Z,15.20
2022-11-01T20:57:28.158Z,15.20
2022-11-01T20:59:57.978Z,15.10
2022-11-01T21:02:27.937Z,15.20
2022-11-01T21:05:01.890Z,15.10
2022-11-01T21:07:31.704Z,15.10
2022-11-01T21:10:02.209Z,15.10
2022-11-01T21:12:44.672Z,15.10
2022-11-01T21:15:35.043Z,15.10
2022-11-01T21:18:41.752Z,15.00
2022-11-01T21:21:35.749Z,15.00
2022-11-01T21:24:42.090Z,15.00
2022-11-01T21:27:27.506Z,15.00
2022-11-01T21:30:02.188Z,14.90
2022-11-01T21:32:34.828Z,14.90
2022-11-01T21:35:33.413Z,14.90
2022-11-01T21:38:03.189Z,14.90
2022-11-01T21:40:32.686Z,14.80
2022-11-01T21:43:05.762Z,14.80
2022-11-01T21:45:34.891Z,14.80
2022-11-01T21:48:17.648Z,14.70
2022-11-01T21:50:46.735Z,14.70
2022-11-01T21:53:15.738Z,14.70
2022-11-01T21:55:44.895Z,14.70
2022-11-01T21:58:15.130Z,14.60
2022-11-01T22:00:44.149Z,14.60
2022-11-01T22:03:13.134Z,14.60
2022-11-01T22:05:42.328Z,14.50
2022-11-01T22:08:11.216Z,14.50
2022-11-01T22:10:40.249Z,14.50
2022-11-01T22:13:09.836Z,14.40
2022-11-01T22:15:40.473Z,14.40
2022-11-01T22:18:09.606Z,14.30
2022-11-01T22:20:38.625Z,14.30
2022-11-01T22:23:08.196Z,14.30
2022-11-01T22:25:37.141Z,14.20
2022-11-01T22:28:07.218Z,14.20
2022-11-01T22:30:36.473Z,14.20
2022-11-01T22:33:08.984Z,14.10
2022-11-01T22:35:37.877Z,14.10
2022-11-01T22:38:16.073Z,14.00
2022-11-01T22:40:48.720Z,14.00
2022-11-01T22:43:19.937Z,14.00
2022-11-01T22:45:51.591Z,13.90
2022-11-01T22:48:24.438Z,13.90
2022-11-01T22:50:53.318Z,13.90
2022-11-01T22:53:25.067Z,13.90
2022-11-01T22:55:55.881Z,13.80
2022-11-01T22:58:34.717Z,13.80
2022-11-01T23:01:19.523Z,13.80
2022-11-01T23:03:53.936Z,13.80
2022-11-01T23:06:31.797Z,13.80
2022-11-01T23:09:13.098Z,13.80
2022-11-01T23:12:01.862Z,13.80
2022-11-01T23:14:39.652Z,13.70
2022-11-01T23:17:21.112Z,13.70
2022-11-01T23:19:58.869Z,13.70
2022-11-01T23:22:32.415Z,13.70
2022-11-01T23:25:01.097Z,13.70
2022-11-01T23:27:30.782Z,13.60
2022-11-01T23:30:02.043Z,13.60
2022-11-01T23:32:32.421Z,13.60
2022-11-01T23:35:12.355Z,13.60
2022-11-01T23:37:41.888Z,13.60
2022-11-01T23:40:16.038Z,13.50
2022-11-01T23:42:45.485Z,13.50
2022-11-01T23:45:24.917Z,13.40
2022-11-01T23:47:53.768Z,13.40
2022-11-01T23:50:29.120Z,13.30
2022-11-01T23:53:00.370Z,13.30
2022-11-01T23:55:32.572Z,13.30
2022-11-01T23:58:02.987Z,13.20
